createdAt,value
2023-04-09T00:02:27.690Z,102530.91
2023-04-09T00:04:56.045Z,102530.13
2023-04-09T00:07:24.341Z,102530.91
2023-04-09T00:09:53.931Z,102521.97
2023-04-09T00:12:22.141Z,102528.19
2023-04-09T00:14:50.400Z,102514.97
2023-04-09T00:17:18.639Z,102534.75
2023-04-09T00:19:46.811Z,102519.59
2023-04-09T00:22:15.067Z,102530.72
2023-04-09T00:24:43.359Z,102521.00
2023-04-09T00:27:13.012Z,102518.63
2023-04-09T00:29:41.216Z,102513.53
2023-04-09T00:32:09.493Z,102510.00
2023-04-09T00:34:38.760Z,102506.78
2023-04-09T00:37:07.262Z,102504.72
2023-04-09T00:39:35.458Z,102509.97
2023-04-09T00:42:03.794Z,102507.09
2023-04-09T00:44:33.378Z,102508.03
2023-04-09T00:47:01.784Z,102505.13
2023-04-09T00:49:30.485Z,102499.88
2023-04-09T00:51:58.895Z,102506.53
2023-04-09T00:54:27.158Z,102492.34
2023-04-09T00:56:56.711Z,102495.97
2023-04-09T00:59:26.954Z,102496.09
2023-04-09T01:01:56.623Z,102494.97
2023-04-09T01:04:25.915Z,102503.53
2023-04-09T01:07:00.444Z,102495.50
2023-04-09T01:09:35.092Z,102494.34
2023-04-09T01:12:13.424Z,102491.59
2023-04-09T01:14:51.093Z,102484.72
2023-04-09T01:17:27.256Z,102476.25
2023-04-09T01:20:04.160Z,102475.56
2023-04-09T01:22:43.356Z,102468.69
2023-04-09T01:25:30.681Z,102471.50
2023-04-09T01:28:16.518Z,102478.13
2023-04-09T01:30:49.685Z,102475.53
2023-04-09T01:33:21.409Z,102472.97
2023-04-09T01:35:51.189Z,102480.09
2023-04-09T01:38:22.233Z,102474.00
2023-04-09T01:40:51.959Z,102482.19
2023-04-09T01:43:22.297Z,102471.50
2023-04-09T01:45:51.185Z,102466.19
2023-04-09T01:48:20.956Z,102457.44
2023-04-09T01:50:49.480Z,102455.31
2023-04-09T01:53:18.070Z,102448.91
2023-04-09T01:55:46.344Z,102461.75
2023-04-09T01:58:15.722Z,102456.47
2023-04-09T02:00:49.090Z,102453.88
2023-04-09T02:03:23.722Z,102454.47
2023-04-09T02:05:58.930Z,102461.25
2023-04-09T02:08:30.288Z,102463.81
2023-04-09T02:11:01.833Z,102458.97
2023-04-09T02:13:30.858Z,102458.47
2023-04-09T02:16:01.710Z,102459.06
2023-04-09T02:18:32.729Z,102459.69
2023-04-09T02:21:01.747Z,102462.97
2023-04-09T02:23:30.199Z,102460.88
2023-04-09T02:25:58.464Z,102463.69
2023-04-09T02:28:26.675Z,102466.97
2023-04-09T02:30:54.944Z,102461.69
2023-04-09T02:33:24.560Z,102458.75
2023-04-09T02:35:52.876Z,102462.09
2023-04-09T02:38:21.142Z,102463.25
2023-04-09T02:40:49.360Z,102456.88
2023-04-09T02:43:17.565Z,102456.66
2023-04-09T02:45:45.832Z,102448.03
2023-04-09T02:48:14.093Z,102445.44
2023-04-09T02:50:43.738Z,102448.75
2023-04-09T02:53:12.023Z,102446.59
2023-04-09T02:55:40.258Z,102444.03
2023-04-09T02:58:08.484Z,102438.41
2023-04-09T03:00:36.847Z,102436.59
2023-04-09T03:03:05.418Z,102439.91
2023-04-09T03:05:33.833Z,102440.47
2023-04-09T03:08:03.533Z,102437.59
2023-04-09T03:10:31.778Z,102438.16
2023-04-09T03:12:59.991Z,102436.88
2023-04-09T03:15:28.317Z,102432.06
2023-04-09T03:17:56.593Z,102427.28
2023-04-09T03:20:24.823Z,102429.72
2023-04-09T03:22:53.134Z,102425.72
2023-04-09T03:25:22.977Z,102430.13
2023-04-09T03:27:51.201Z,102430.72
2023-04-09T03:30:19.382Z,102428.56
2023-04-09T03:32:47.678Z,102419.50
2023-04-09T03:35:15.935Z,102415.78
2023-04-09T03:37:44.153Z,102414.47
2023-04-09T03:40:14.104Z,102422.34
2023-04-09T03:42:45.429Z,102426.75
2023-04-09T03:45:13.693Z,102424.59
2023-04-09T03:47:41.956Z,102418.19
2023-04-09T03:50:11.447Z,102424.97
2023-04-09T03:52:39.683Z,102423.66
2023-04-09T03:55:10.025Z,102425.03
2023-04-09T03:57:38.257Z,102424.84
2023-04-09T04:00:09.529Z,102425.94
2023-04-09T04:02:37.994Z,102423.81
2023-04-09T04:05:07.265Z,102430.84
2023-04-09T04:07:35.845Z,102441.44
2023-04-09T04:10:06.256Z,102437.69
2023-04-09T04:12:34.524Z,102435.88
2023-04-09T04:15:03.052Z,102435.97
2023-04-09T04:17:32.751Z,102440.09
2023-04-09T04:20:01.204Z,102436.13
2023-04-09T04:22:29.505Z,102438.09
2023-04-09T04:24:57.887Z,102435.72
2023-04-09T04:27:26.111Z,102434.47
2023-04-09T04:29:54.320Z,102433.22
2023-04-09T04:32:22.669Z,102434.34
2023-04-09T04:34:52.283Z,102428.25
2023-04-09T04:37:20.597Z,102425.06
2023-04-09T04:39:48.866Z,102428.63
2023-04-09T04:42:17.177Z,102430.28
2023-04-09T04:44:45.582Z,102433.53
2023-04-09T04:47:13.918Z,102429.81
2023-04-09T04:49:42.214Z,102440.06
2023-04-09T04:52:11.925Z,102435.50
2023-04-09T04:54:40.487Z,102432.28
2023-04-09T04:57:08.839Z,102434.47
2023-04-09T04:59:38.829Z,102431.53
2023-04-09T05:02:07.158Z,102436.41
2023-04-09T05:04:35.801Z,102435.09
2023-04-09T05:07:04.049Z,102430.25
2023-04-09T05:09:33.713Z,102420.88
2023-04-09T05:12:02.479Z,102426.81
2023-04-09T05:14:30.731Z,102427.41
2023-04-09T05:16:59.132Z,102433.03
2023-04-09T05:19:27.366Z,102434.13
2023-04-09T05:21:55.585Z,102431.72
2023-04-09T05:24:23.870Z,102425.25
2023-04-09T05:26:53.518Z,102422.28
2023-04-09T05:29:22.002Z,102423.91
2023-04-09T05:31:50.270Z,102416.06
2023-04-09T05:34:18.460Z,102424.38
2023-04-09T05:36:46.652Z,102423.78
2023-04-09T05:39:14.916Z,102419.19
2023-04-09T05:41:44.910Z,102411.06
2023-04-09T05:44:14.528Z,102420.44
2023-04-09T05:46:42.893Z,102414.97
2023-04-09T05:49:11.548Z,102419.44
2023-04-09T05:51:39.885Z,102414.56
2023-04-09T05:54:08.163Z,102413.13
2023-04-09T05:56:36.502Z,102418.69
2023-04-09T05:59:04.978Z,102416.97
2023-04-09T06:01:34.605Z,102424.91
2023-04-09T06:04:03.396Z,102416.72
2023-04-09T06:06:32.642Z,102420.31
2023-04-09T06:09:00.905Z,102423.88
2023-04-09T06:11:29.154Z,102429.31
2023-04-09T06:13:57.765Z,102431.59
2023-04-09T06:16:26.256Z,102430.66
2023-04-09T06:18:57.009Z,102424.53
2023-04-09T06:21:25.274Z,102431.63
2023-04-09T06:23:54.274Z,102439.56
2023-04-09T06:26:23.214Z,102434.00
2023-04-09T06:28:52.595Z,102440.81
2023-04-09T06:31:21.094Z,102441.94
2023-04-09T06:33:49.384Z,102447.47
2023-04-09T06:36:18.963Z,102444.56
2023-04-09T06:38:47.536Z,102450.09
2023-04-09T06:41:15.729Z,102443.66
2023-04-09T06:43:43.933Z,102453.66
2023-04-09T06:46:13.734Z,102452.66
2023-04-09T06:48:42.524Z,102448.47
2023-04-09T06:51:10.854Z,102464.16
2023-04-09T06:53:41.213Z,102456.13
2023-04-09T06:56:09.719Z,102458.09
2023-04-09T06:58:38.129Z,102454.88
2023-04-09T07:01:07.023Z,102457.53
2023-04-09T07:03:35.546Z,102462.09
2023-04-09T07:06:03.923Z,102445.31
2023-04-09T07:08:32.215Z,102450.94
2023-04-09T07:11:02.006Z,102455.31
2023-04-09T07:13:31.292Z,102450.59
2023-04-09T07:15:59.576Z,102446.06
2023-04-09T07:18:28.265Z,102457.41
2023-04-09T07:20:56.576Z,102451.53
2023-04-09T07:23:24.832Z,102457.78
2023-04-09T07:25:53.429Z,102461.78
2023-04-09T07:28:23.021Z,102458.19
2023-04-09T07:30:51.386Z,102454.72
2023-04-09T07:33:19.643Z,102457.06
2023-04-09T07:35:47.959Z,102456.31
2023-04-09T07:38:16.309Z,102459.50
2023-04-09T07:40:44.613Z,102467.81
2023-04-09T07:43:12.832Z,102464.47
2023-04-09T07:45:42.494Z,102458.09
2023-04-09T07:48:10.952Z,102464.28
2023-04-09T07:50:39.292Z,102474.31
2023-04-09T07:53:07.568Z,102470.75
2023-04-09T07:55:35.889Z,102475.03
2023-04-09T07:58:05.392Z,102472.81
2023-04-09T08:00:33.716Z,102475.66
2023-04-09T08:03:04.165Z,102472.44
2023-04-09T08:05:32.664Z,102473.19
2023-04-09T08:08:01.075Z,102475.91
2023-04-09T08:10:29.369Z,102478.72
2023-04-09T08:12:57.609Z,102476.59
2023-04-09T08:15:25.894Z,102474.47
2023-04-09T08:17:54.218Z,102473.31
2023-04-09T08:20:24.196Z,102473.50
2023-04-09T08:22:52.517Z,102478.50
2023-04-09T08:25:21.011Z,102473.13
2023-04-09T08:27:49.211Z,102475.47
2023-04-09T08:30:18.917Z,102472.31
2023-04-09T08:32:47.312Z,102468.19
2023-04-09T08:35:15.974Z,102462.44
2023-04-09T08:37:45.683Z,102459.06
2023-04-09T08:40:14.438Z,102466.59
2023-04-09T08:42:46.483Z,102467.16
2023-04-09T08:45:15.051Z,102471.03
2023-04-09T08:47:44.967Z,102466.38
2023-04-09T08:50:14.927Z,102453.88
2023-04-09T08:52:45.570Z,102459.16
2023-04-09T08:55:14.047Z,102462.44
2023-04-09T08:57:42.678Z,102451.06
2023-04-09T09:00:12.756Z,102453.78
2023-04-09T09:03:06.361Z,102448.53
2023-04-09T09:05:39.759Z,102457.03
2023-04-09T09:08:10.150Z,102446.63
2023-04-09T09:10:43.304Z,102444.53
2023-04-09T09:13:24.582Z,102441.75
2023-04-09T09:15:55.365Z,102438.78
2023-04-09T09:18:40.458Z,102437.16
2023-04-09T09:21:12.826Z,102434.97
2023-04-09T09:23:42.409Z,102434.47
2023-04-09T09:26:16.502Z,102436.25
2023-04-09T09:28:45.159Z,102427.19
2023-04-09T09:31:14.707Z,102438.38
2023-04-09T09:33:44.692Z,102434.56
2023-04-09T09:36:13.124Z,102428.84
2023-04-09T09:38:56.269Z,102423.97
2023-04-09T09:41:25.955Z,102424.59
2023-04-09T09:43:54.343Z,102423.25
2023-04-09T09:46:24.176Z,102430.09
2023-04-09T09:48:54.483Z,102430.38
2023-04-09T09:51:28.775Z,102430.63
2023-04-09T09:53:58.304Z,102430.06
2023-04-09T09:56:32.786Z,102424.78
2023-04-09T09:59:12.906Z,102423.22
2023-04-09T10:01:42.376Z,102414.44
2023-04-09T10:04:16.421Z,102423.06
2023-04-09T10:06:46.152Z,102428.41
2023-04-09T10:09:14.959Z,102419.63
2023-04-09T10:11:45.591Z,102419.31
2023-04-09T10:14:15.411Z,102416.97
2023-04-09T10:16:44.209Z,102404.94
2023-04-09T10:19:15.163Z,102407.88
2023-04-09T10:21:47.613Z,102400.47
2023-04-09T10:24:17.502Z,102403.75
2023-04-09T10:26:46.868Z,102397.00
2023-04-09T10:29:17.133Z,102403.88
2023-04-09T10:31:53.087Z,102403.91
2023-04-09T10:34:25.671Z,102397.00
2023-04-09T10:36:58.131Z,102392.63
2023-04-09T10:39:29.770Z,102406.13
2023-04-09T10:41:59.576Z,102400.16
2023-04-09T10:44:31.780Z,102392.63
2023-04-09T10:47:00.601Z,102386.22
2023-04-09T10:49:38.761Z,102383.72
2023-04-09T10:52:11.975Z,102386.53
2023-04-09T10:54:46.670Z,102381.38
2023-04-09T10:57:21.523Z,102383.03
2023-04-09T10:59:52.571Z,102373.88
2023-04-09T11:03:22.083Z,102382.97
2023-04-09T11:05:56.694Z,102376.69
2023-04-09T11:08:25.129Z,102375.81
2023-04-09T11:10:58.264Z,102364.13
2023-04-09T11:13:26.741Z,102366.38
2023-04-09T11:15:56.663Z,102363.53
2023-04-09T11:18:27.017Z,102363.28
2023-04-09T11:21:02.036Z,102370.56
2023-04-09T11:23:30.650Z,102364.84
2023-04-09T11:25:58.968Z,102349.41
2023-04-09T11:28:28.636Z,102356.19
2023-04-09T11:30:56.896Z,102353.75
2023-04-09T11:33:33.115Z,102340.47
2023-04-09T11:36:03.805Z,102335.81
2023-04-09T11:38:33.143Z,102340.63
2023-04-09T11:41:02.907Z,102354.81
2023-04-09T11:43:31.078Z,102348.09
2023-04-09T11:46:00.230Z,102343.38
2023-04-09T11:48:28.704Z,102346.94
2023-04-09T11:50:57.135Z,102347.75
2023-04-09T11:53:32.359Z,102334.47
2023-04-09T11:56:02.974Z,102335.94
2023-04-09T11:58:32.173Z,102348.78
2023-04-09T12:01:00.864Z,102330.63
2023-04-09T12:03:32.428Z,102342.84
2023-04-09T12:06:03.124Z,102328.78
2023-04-09T12:08:35.625Z,102325.97
2023-04-09T12:11:11.571Z,102322.97
2023-04-09T12:13:43.329Z,102336.00
2023-04-09T12:16:12.459Z,102324.22
2023-04-09T12:18:41.488Z,102327.78
2023-04-09T12:21:09.786Z,102326.94
2023-04-09T12:23:39.674Z,102332.94
2023-04-09T12:26:08.150Z,102331.44
2023-04-09T12:28:36.456Z,102332.22
2023-04-09T12:31:04.706Z,102322.09
2023-04-09T12:33:34.026Z,102332.31
2023-04-09T12:36:02.560Z,102332.16
2023-04-09T12:38:31.119Z,102325.88
2023-04-09T12:41:01.269Z,102324.94
2023-04-09T12:43:29.661Z,102316.69
2023-04-09T12:45:58.043Z,102327.31
2023-04-09T12:48:26.808Z,102315.53
2023-04-09T12:50:55.071Z,102304.47
2023-04-09T12:53:23.472Z,102304.91
2023-04-09T12:55:51.818Z,102306.16
2023-04-09T12:58:21.513Z,102303.78
2023-04-09T13:00:49.780Z,102305.28
2023-04-09T13:03:18.253Z,102299.34
2023-04-09T13:05:47.217Z,102308.75
2023-04-09T13:08:16.270Z,102306.91
2023-04-09T13:10:44.590Z,102303.06
2023-04-09T13:13:13.076Z,102303.34
2023-04-09T13:15:45.060Z,102297.72
2023-04-09T13:18:14.273Z,102304.34
2023-04-09T13:20:42.583Z,102300.44
2023-04-09T13:23:10.893Z,102294.25
2023-04-09T13:25:39.148Z,102294.19
2023-04-09T13:28:07.421Z,102296.81
2023-04-09T13:30:36.093Z,102293.94
2023-04-09T13:33:05.889Z,102287.66
2023-04-09T13:35:34.504Z,102275.81
2023-04-09T13:38:02.797Z,102284.91
2023-04-09T13:40:31.079Z,102275.59
2023-04-09T13:42:59.392Z,102274.34
2023-04-09T13:45:27.725Z,102260.97
2023-04-09T13:47:55.993Z,102270.81
2023-04-09T13:50:26.370Z,102264.53
2023-04-09T13:52:54.710Z,102262.34
2023-04-09T13:55:23.081Z,102250.72
2023-04-09T13:57:51.366Z,102259.63
2023-04-09T14:00:20.782Z,102255.38
2023-04-09T14:02:49.081Z,102251.47
2023-04-09T14:05:17.737Z,102263.91
2023-04-09T14:07:47.712Z,102266.50
2023-04-09T14:10:16.041Z,102247.69
2023-04-09T14:12:44.363Z,102246.88
2023-04-09T14:15:12.833Z,102246.09
2023-04-09T14:17:41.425Z,102246.09
2023-04-09T14:20:10.464Z,102252.41
2023-04-09T14:22:38.932Z,102245.03
2023-04-09T14:25:10.102Z,102240.84
2023-04-09T14:27:39.064Z,102260.19
2023-04-09T14:30:11.011Z,102244.84
2023-04-09T14:32:39.299Z,102243.75
2023-04-09T14:35:08.223Z,102235.63
2023-04-09T14:37:37.653Z,102240.00
2023-04-09T14:40:08.743Z,102224.81
2023-04-09T14:42:36.851Z,102231.13
2023-04-09T14:45:05.921Z,102222.56
2023-04-09T14:47:34.274Z,102228.91
2023-04-09T14:50:02.499Z,102224.25
2023-04-09T14:52:30.973Z,102218.66
2023-04-09T14:54:59.178Z,102205.13
2023-04-09T14:57:28.885Z,102211.28
2023-04-09T14:59:57.196Z,102200.34
2023-04-09T15:02:25.666Z,102210.03
2023-04-09T15:04:54.195Z,102201.00
2023-04-09T15:07:25.008Z,102202.88
2023-04-09T15:09:53.391Z,102191.41
2023-04-09T15:12:21.694Z,102193.16
2023-04-09T15:14:51.338Z,102199.66
2023-04-09T15:17:19.676Z,102204.91
2023-04-09T15:19:48.299Z,102205.28
2023-04-09T15:22:16.827Z,102195.81
2023-04-09T15:24:45.111Z,102194.63
2023-04-09T15:27:13.414Z,102197.72
2023-04-09T15:29:41.661Z,102201.53
2023-04-09T15:32:11.437Z,102197.13
2023-04-09T15:34:39.705Z,102196.72
2023-04-09T15:37:07.990Z,102198.66
2023-04-09T15:39:36.380Z,102191.16
2023-04-09T15:42:04.796Z,102180.25
2023-04-09T15:44:33.068Z,102181.81
2023-04-09T15:47:01.298Z,102174.78
2023-04-09T15:49:30.981Z,102165.75
2023-04-09T15:51:59.169Z,102167.63
2023-04-09T15:54:27.453Z,102168.66
2023-04-09T15:56:55.666Z,102167.03
2023-04-09T15:59:23.978Z,102175.94
2023-04-09T16:01:52.277Z,102160.34
2023-04-09T16:04:20.909Z,102154.50
2023-04-09T16:06:50.606Z,102159.97
2023-04-09T16:09:18.928Z,102159.56
2023-04-09T16:11:47.348Z,102152.06
2023-04-09T16:14:15.683Z,102149.34
2023-04-09T16:16:47.135Z,102145.47
2023-04-09T16:19:15.879Z,102147.06
2023-04-09T16:21:45.483Z,102140.78
2023-04-09T16:24:16.389Z,102139.94
2023-04-09T16:26:46.560Z,102149.19
2023-04-09T16:29:16.361Z,102151.06
2023-04-09T16:31:44.727Z,102152.56
2023-04-09T16:34:13.119Z,102152.09
2023-04-09T16:36:41.710Z,102151.22
2023-04-09T16:39:10.982Z,102148.03
2023-04-09T16:41:40.654Z,102152.63
2023-04-09T16:44:08.881Z,102142.41
2023-04-09T16:46:37.152Z,102145.88
2023-04-09T16:49:05.445Z,102151.69
2023-04-09T16:51:33.764Z,102150.38
2023-04-09T16:54:02.046Z,102147.56
2023-04-09T16:56:32.947Z,102158.75
2023-04-09T16:59:02.647Z,102152.50
2023-04-09T17:01:31.493Z,102156.72
2023-04-09T17:04:00.774Z,102146.59
2023-04-09T17:06:29.435Z,102155.97
2023-04-09T17:08:57.969Z,102153.91
2023-04-09T17:11:26.507Z,102157.00
2023-04-09T17:13:55.545Z,102152.28
2023-04-09T17:16:25.613Z,102143.63
2023-04-09T17:18:54.425Z,102138.91
2023-04-09T17:21:22.757Z,102146.63
2023-04-09T17:23:51.090Z,102146.91
2023-04-09T17:26:20.724Z,102146.44
2023-04-09T17:28:49.045Z,102139.34
2023-04-09T17:31:17.799Z,102142.44
2023-04-09T17:33:48.748Z,102146.66
2023-04-09T17:36:19.535Z,102137.94
2023-04-09T17:38:48.408Z,102136.38
2023-04-09T17:41:16.703Z,102135.47
2023-04-09T17:43:44.998Z,102131.13
2023-04-09T17:46:13.270Z,102141.53
2023-04-09T17:48:42.261Z,102142.28
2023-04-09T17:51:16.374Z,102134.78
2023-04-09T17:53:44.798Z,102136.72
2023-04-09T17:56:17.596Z,102136.16
2023-04-09T17:58:46.522Z,102136.47
2023-04-09T18:01:14.941Z,102126.16
2023-04-09T18:03:45.728Z,102130.59
2023-04-09T18:06:17.378Z,102135.53
2023-04-09T18:08:45.674Z,102144.41
2023-04-09T18:11:15.644Z,102140.72
2023-04-09T18:13:43.959Z,102142.88
2023-04-09T18:16:12.797Z,102142.34
2023-04-09T18:18:41.417Z,102139.88
2023-04-09T18:21:12.980Z,102140.22
2023-04-09T18:23:42.739Z,102146.69
2023-04-09T18:26:11.246Z,102152.88
2023-04-09T18:28:39.557Z,102155.81
2023-04-09T18:31:07.900Z,102147.88
2023-04-09T18:33:36.418Z,102152.13
2023-04-09T18:36:05.501Z,102143.03
2023-04-09T18:38:34.721Z,102146.78
2023-04-09T18:41:04.594Z,102143.97
2023-04-09T18:43:32.998Z,102142.63
2023-04-09T18:46:01.412Z,102137.78
2023-04-09T18:48:29.697Z,102146.16
2023-04-09T18:50:59.028Z,102148.75
2023-04-09T18:53:27.891Z,102151.25
2023-04-09T18:55:56.605Z,102161.91
2023-04-09T18:58:26.909Z,102154.81
2023-04-09T19:00:55.409Z,102148.47
2023-04-09T19:03:24.067Z,102144.03
2023-04-09T19:05:53.257Z,102148.88
2023-04-09T19:08:21.560Z,102154.25
2023-04-09T19:10:49.808Z,102163.06
2023-04-09T19:13:18.249Z,102156.75
2023-04-09T19:15:47.967Z,102156.63
2023-04-09T19:18:17.102Z,102161.13
2023-04-09T19:20:45.591Z,102155.94
2023-04-09T19:23:14.061Z,102160.47
2023-04-09T19:25:42.931Z,102160.22
2023-04-09T19:28:11.542Z,102167.00
2023-04-09T19:30:39.838Z,102156.69
2023-04-09T19:33:09.656Z,102152.59
2023-04-09T19:35:40.667Z,102156.63
2023-04-09T19:38:08.973Z,102155.25
2023-04-09T19:40:37.328Z,102150.84
2023-04-09T19:43:05.675Z,102154.44
2023-04-09T19:45:34.053Z,102160.88
2023-04-09T19:48:02.449Z,102161.41
2023-04-09T19:50:32.285Z,102168.97
2023-04-09T19:53:00.569Z,102160.34
2023-04-09T19:55:29.113Z,102159.91
2023-04-09T19:57:57.439Z,102166.00
2023-04-09T20:00:26.466Z,102159.66
2023-04-09T20:02:54.939Z,102159.97
2023-04-09T20:05:23.496Z,102163.03
2023-04-09T20:07:53.628Z,102158.25
2023-04-09T20:10:21.985Z,102153.50
2023-04-09T20:12:51.519Z,102150.66
2023-04-09T20:15:21.051Z,102144.28
2023-04-09T20:17:49.586Z,102139.50
2023-04-09T20:20:20.086Z,102145.94
2023-04-09T20:22:55.634Z,102140.38
2023-04-09T20:25:26.125Z,102136.41
2023-04-09T20:27:55.027Z,102133.22
2023-04-09T20:30:23.594Z,102146.31
2023-04-09T20:32:52.009Z,102130.72
2023-04-09T20:35:20.907Z,102142.22
2023-04-09T20:37:49.946Z,102134.75
2023-04-09T20:40:18.325Z,102131.88
2023-04-09T20:42:48.125Z,102133.00
2023-04-09T20:45:16.836Z,102124.75
2023-04-09T20:47:45.346Z,102123.81
2023-04-09T20:50:13.935Z,102123.69
2023-04-09T20:52:43.246Z,102125.13
2023-04-09T20:55:11.503Z,102132.00
2023-04-09T20:57:39.770Z,102122.28
2023-04-09T21:00:11.263Z,102121.03
2023-04-09T21:02:41.165Z,102122.16
2023-04-09T21:05:21.746Z,102106.88
2023-04-09T21:07:50.810Z,102109.72
2023-04-09T21:10:19.347Z,102109.91
2023-04-09T21:12:47.615Z,102096.25
2023-04-09T21:15:17.712Z,102107.72
2023-04-09T21:17:46.321Z,102107.59
2023-04-09T21:20:16.564Z,102099.78
2023-04-09T21:22:44.888Z,102104.28
2023-04-09T21:25:15.257Z,102099.50
2023-04-09T21:27:43.938Z,102105.56
2023-04-09T21:30:13.310Z,102101.56
2023-04-09T21:32:43.020Z,102109.28
2023-04-09T21:35:11.780Z,102107.22
2023-04-09T21:37:40.151Z,102108.31
2023-04-09T21:40:10.354Z,102107.06
2023-04-09T21:42:38.631Z,102121.75
2023-04-09T21:45:08.059Z,102109.31
2023-04-09T21:47:36.466Z,102111.03
2023-04-09T21:50:07.481Z,102110.59
2023-04-09T21:52:35.798Z,102117.16
2023-04-09T21:55:04.160Z,102105.81
2023-04-09T21:57:32.415Z,102116.19
2023-04-09T22:00:00.750Z,102118.44
2023-04-09T22:02:29.222Z,102129.28
2023-04-09T22:04:59.825Z,102122.28
2023-04-09T22:07:29.691Z,102118.28
2023-04-09T22:09:58.784Z,102116.53
2023-04-09T22:12:27.321Z,102121.81
2023-04-09T22:14:56.169Z,102124.84
2023-04-09T22:17:24.567Z,102118.94
2023-04-09T22:19:52.858Z,102118.47
2023-04-09T22:22:21.203Z,102117.50
2023-04-09T22:24:50.805Z,102129.81
2023-04-09T22:27:19.034Z,102130.41
2023-04-09T22:29:47.284Z,102117.19
2023-04-09T22:32:15.966Z,102122.63
2023-04-09T22:34:44.193Z,102125.50
2023-04-09T22:37:12.446Z,102131.75
2023-04-09T22:39:40.912Z,102123.91
2023-04-09T22:42:10.608Z,102132.03
2023-04-09T22:44:39.705Z,102133.16
2023-04-09T22:47:07.970Z,102123.44
2023-04-09T22:49:36.285Z,102119.13
2023-04-09T22:52:05.619Z,102131.56
2023-04-09T22:54:34.144Z,102133.81
2023-04-09T22:57:03.110Z,102130.59
2023-04-09T22:59:39.869Z,102121.22
2023-04-09T23:02:09.339Z,102128.53
2023-04-09T23:04:37.815Z,102131.09
2023-04-09T23:07:06.204Z,102129.03
2023-04-09T23:09:34.531Z,102130.94
2023-04-09T23:12:03.294Z,102137.75
2023-04-09T23:14:32.875Z,102127.28
2023-04-09T23:17:01.134Z,102128.06
2023-04-09T23:19:29.375Z,102134.25
2023-04-09T23:21:57.630Z,102125.69
2023-04-09T23:24:25.890Z,102133.03
2023-04-09T23:26:54.190Z,102135.72
2023-04-09T23:29:22.487Z,102137.13
2023-04-09T23:31:52.131Z,102131.25
2023-04-09T23:34:20.859Z,102125.72
2023-04-09T23:36:49.109Z,102130.28
2023-04-09T23:39:17.422Z,102130.28
2023-04-09T23:41:45.852Z,102123.94
2023-04-09T23:44:14.123Z,102120.75
2023-04-09T23:46:42.551Z,102117.56
2023-04-09T23:49:12.325Z,102115.66
2023-04-09T23:51:40.640Z,102106.28
2023-04-09T23:54:08.971Z,102108.00
2023-04-09T23:56:37.548Z,102105.28
2023-04-09T23:59:05.878Z,102109.13
